sensor_id;sensor_type;location;lat;lon;timestamp;P1;durP1;ratioP1;P2;durP2;ratioP2
16957;SDS011;8595;52.542;11.974;2022-09-20T00:01:14;8.93;;;2.53;;
16957;SDS011;8595;52.542;11.974;2022-09-20T00:03:45;8.25;;;3.30;;
16957;SDS011;8595;52.542;11.974;2022-09-20T00:06:14;9.43;;;3.35;;
16957;SDS011;8595;52.542;11.974;2022-09-20T00:08:42;7.03;;;3.45;;
16957;SDS011;8595;52.542;11.974;2022-09-20T00:11:10;8.20;;;3.13;;
16957;SDS011;8595;52.542;11.974;2022-09-20T00:13:39;6.72;;;2.95;;
16957;SDS011;8595;52.542;11.974;2022-09-20T00:16:08;12.55;;;2.75;;
16957;SDS011;8595;52.542;11.974;2022-09-20T00:18:38;13.48;;;3.90;;
16957;SDS011;8595;52.542;11.974;2022-09-20T00:21:04;9.13;;;3.75;;
16957;SDS011;8595;52.542;11.974;2022-09-20T00:23:32;3.78;;;2.80;;
16957;SDS011;8595;52.542;11.974;2022-09-20T00:26:00;9.20;;;2.97;;
16957;SDS011;8595;52.542;11.974;2022-09-20T00:28:30;11.40;;;3.15;;
16957;SDS011;8595;52.542;11.974;2022-09-20T00:30:57;5.97;;;2.88;;
16957;SDS011;8595;52.542;11.974;2022-09-20T00:33:24;4.82;;;2.60;;
16957;SDS011;8595;52.542;11.974;2022-09-20T00:36:13;7.40;;;3.10;;
16957;SDS011;8595;52.542;11.974;2022-09-20T00:38:40;6.65;;;2.90;;
16957;SDS011;8595;52.542;11.974;2022-09-20T00:41:07;11.13;;;3.03;;
16957;SDS011;8595;52.542;11.974;2022-09-20T00:43:34;8.13;;;2.88;;
16957;SDS011;8595;52.542;11.974;2022-09-20T00:46:03;12.05;;;3.33;;
16957;SDS011;8595;52.542;11.974;2022-09-20T00:48:32;10.73;;;3.10;;
16957;SDS011;8595;52.542;11.974;2022-09-20T00:51:00;6.90;;;2.67;;
16957;SDS011;8595;52.542;11.974;2022-09-20T00:53:34;9.98;;;3.63;;
16957;SDS011;8595;52.542;11.974;2022-09-20T00:56:05;9.75;;;2.97;;
16957;SDS011;8595;52.542;11.974;2022-09-20T00:58:37;9.32;;;3.20;;
16957;SDS011;8595;52.542;11.974;2022-09-20T01:01:07;10.95;;;3.90;;
16957;SDS011;8595;52.542;11.974;2022-09-20T01:03:35;7.53;;;2.97;;
16957;SDS011;8595;52.542;11.974;2022-09-20T01:06:06;10.32;;;3.13;;
16957;SDS011;8595;52.542;11.974;2022-09-20T01:08:36;7.32;;;3.10;;
16957;SDS011;8595;52.542;11.974;2022-09-20T01:11:04;8.48;;;3.30;;
16957;SDS011;8595;52.542;11.974;2022-09-20T01:13:31;8.15;;;3.20;;
16957;SDS011;8595;52.542;11.974;2022-09-20T01:15:57;6.85;;;3.40;;
16957;SDS011;8595;52.542;11.974;2022-09-20T01:18:27;8.80;;;3.00;;
16957;SDS011;8595;52.542;11.974;2022-09-20T01:20:59;6.72;;;3.53;;
16957;SDS011;8595;52.542;11.974;2022-09-20T01:23:34;13.35;;;3.47;;
16957;SDS011;8595;52.542;11.974;2022-09-20T01:26:22;4.95;;;2.67;;
16957;SDS011;8595;52.542;11.974;2022-09-20T01:29:06;7.78;;;3.15;;
16957;SDS011;8595;52.542;11.974;2022-09-20T01:31:39;10.52;;;3.53;;
16957;SDS011;8595;52.542;11.974;2022-09-20T01:34:12;8.32;;;3.00;;
16957;SDS011;8595;52.542;11.974;2022-09-20T01:36:42;9.10;;;3.08;;
16957;SDS011;8595;52.542;11.974;2022-09-20T01:39:14;9.32;;;3.50;;
16957;SDS011;8595;52.542;11.974;2022-09-20T01:41:51;9.23;;;3.22;;
16957;SDS011;8595;52.542;11.974;2022-09-20T01:44:23;9.38;;;3.17;;
16957;SDS011;8595;52.542;11.974;2022-09-20T01:46:55;10.48;;;3.28;;
16957;SDS011;8595;52.542;11.974;2022-09-20T01:49:30;16.25;;;4.03;;
16957;SDS011;8595;52.542;11.974;2022-09-20T01:52:16;9.70;;;3.17;;
16957;SDS011;8595;52.542;11.974;2022-09-20T01:58:17;11.57;;;3.47;;
16957;SDS011;8595;52.542;11.974;2022-09-20T02:01:22;10.05;;;3.45;;
16957;SDS011;8595;52.542;11.974;2022-09-20T02:04:06;13.48;;;4.10;;
16957;SDS011;8595;52.542;11.974;2022-09-20T02:06:51;8.43;;;3.47;;
16957;SDS011;8595;52.542;11.974;2022-09-20T02:09:37;8.10;;;3.47;;
16957;SDS011;8595;52.542;11.974;2022-09-20T02:12:32;10.93;;;3.47;;
16957;SDS011;8595;52.542;11.974;2022-09-20T02:15:16;10.65;;;3.92;;
16957;SDS011;8595;52.542;11.974;2022-09-20T02:18:13;17.90;;;4.57;;
16957;SDS011;8595;52.542;11.974;2022-09-20T02:20:51;21.25;;;4.43;;
16957;SDS011;8595;52.542;11.974;2022-09-20T02:23:28;12.98;;;3.50;;
16957;SDS011;8595;52.542;11.974;2022-09-20T02:26:20;10.30;;;4.30;;
16957;SDS011;8595;52.542;11.974;2022-09-20T02:28:55;11.10;;;3.60;;
16957;SDS011;8595;52.542;11.974;2022-09-20T02:37:56;18.85;;;4.45;;
16957;SDS011;8595;52.542;11.974;2022-09-20T02:40:44;13.05;;;4.68;;
16957;SDS011;8595;52.542;11.974;2022-09-20T02:43:25;13.30;;;3.97;;
16957;SDS011;8595;52.542;11.974;2022-09-20T02:45:58;16.13;;;4.93;;
16957;SDS011;8595;52.542;11.974;2022-09-20T02:48:33;15.98;;;4.40;;
16957;SDS011;8595;52.542;11.974;2022-09-20T02:51:07;14.10;;;3.97;;
16957;SDS011;8595;52.542;11.974;2022-09-20T02:53:44;15.30;;;4.10;;
16957;SDS011;8595;52.542;11.974;2022-09-20T02:56:18;17.85;;;4.32;;
16957;SDS011;8595;52.542;11.974;2022-09-20T02:58:51;13.07;;;4.50;;
16957;SDS011;8595;52.542;11.974;2022-09-20T03:01:30;12.15;;;4.53;;
16957;SDS011;8595;52.542;11.974;2022-09-20T03:04:07;10.95;;;4.63;;
16957;SDS011;8595;52.542;11.974;2022-09-20T03:06:49;13.15;;;4.70;;
16957;SDS011;8595;52.542;11.974;2022-09-20T03:09:22;12.48;;;4.60;;
16957;SDS011;8595;52.542;11.974;2022-09-20T03:11:59;16.55;;;5.35;;
16957;SDS011;8595;52.542;11.974;2022-09-20T03:14:34;14.75;;;4.93;;
16957;SDS011;8595;52.542;11.974;2022-09-20T03:17:09;14.10;;;4.65;;
16957;SDS011;8595;52.542;11.974;2022-09-20T03:19:55;14.63;;;5.53;;
16957;SDS011;8595;52.542;11.974;2022-09-20T03:22:38;15.88;;;5.20;;
16957;SDS011;8595;52.542;11.974;2022-09-20T03:25:21;15.95;;;5.50;;
16957;SDS011;8595;52.542;11.974;2022-09-20T03:28:14;13.90;;;5.60;;
16957;SDS011;8595;52.542;11.974;2022-09-20T03:30:59;14.10;;;5.80;;
16957;SDS011;8595;52.542;11.974;2022-09-20T03:33:35;15.27;;;5.63;;
16957;SDS011;8595;52.542;11.974;2022-09-20T03:36:14;25.08;;;6.22;;
16957;SDS011;8595;52.542;11.974;2022-09-20T03:39:03;12.05;;;5.15;;
16957;SDS011;8595;52.542;11.974;2022-09-20T03:44:48;15.70;;;5.57;;
16957;SDS011;8595;52.542;11.974;2022-09-20T03:47:32;15.80;;;5.32;;
16957;SDS011;8595;52.542;11.974;2022-09-20T03:50:16;15.40;;;6.05;;
16957;SDS011;8595;52.542;11.974;2022-09-20T03:52:59;19.33;;;6.30;;
16957;SDS011;8595;52.542;11.974;2022-09-20T03:55:44;16.35;;;5.15;;
16957;SDS011;8595;52.542;11.974;2022-09-20T03:58:23;16.67;;;5.43;;
16957;SDS011;8595;52.542;11.974;2022-09-20T04:01:13;15.90;;;5.50;;
16957;SDS011;8595;52.542;11.974;2022-09-20T04:03:58;10.07;;;5.30;;
16957;SDS011;8595;52.542;11.974;2022-09-20T04:06:36;17.50;;;5.80;;
16957;SDS011;8595;52.542;11.974;2022-09-20T04:09:30;17.33;;;5.53;;
16957;SDS011;8595;52.542;11.974;2022-09-20T04:12:12;15.43;;;5.72;;
16957;SDS011;8595;52.542;11.974;2022-09-20T04:14:49;13.02;;;6.13;;
16957;SDS011;8595;52.542;11.974;2022-09-20T04:17:29;16.07;;;5.80;;
16957;SDS011;8595;52.542;11.974;2022-09-20T04:20:04;16.47;;;6.40;;
16957;SDS011;8595;52.542;11.974;2022-09-20T04:22:40;18.60;;;7.10;;
16957;SDS011;8595;52.542;11.974;2022-09-20T04:25:11;16.52;;;6.40;;
16957;SDS011;8595;52.542;11.974;2022-09-20T04:27:43;18.87;;;6.07;;
16957;SDS011;8595;52.542;11.974;2022-09-20T04:30:16;23.40;;;7.00;;
16957;SDS011;8595;52.542;11.974;2022-09-20T04:32:46;19.35;;;6.57;;
16957;SDS011;8595;52.542;11.974;2022-09-20T04:35:22;22.90;;;6.60;;
16957;SDS011;8595;52.542;11.974;2022-09-20T04:38:26;18.92;;;6.25;;
16957;SDS011;8595;52.542;11.974;2022-09-20T04:40:58;12.20;;;5.68;;
16957;SDS011;8595;52.542;11.974;2022-09-20T04:43:47;21.53;;;6.63;;
16957;SDS011;8595;52.542;11.974;2022-09-20T04:49:41;17.93;;;7.10;;
16957;SDS011;8595;52.542;11.974;2022-09-20T04:52:43;21.63;;;7.60;;
16957;SDS011;8595;52.542;11.974;2022-09-20T04:55:33;20.50;;;7.18;;
16957;SDS011;8595;52.542;11.974;2022-09-20T05:04:31;18.87;;;6.97;;
16957;SDS011;8595;52.542;11.974;2022-09-20T05:10:47;26.90;;;8.17;;
16957;SDS011;8595;52.542;11.974;2022-09-20T05:13:43;22.63;;;8.52;;
16957;SDS011;8595;52.542;11.974;2022-09-20T05:16:24;22.83;;;8.68;;
16957;SDS011;8595;52.542;11.974;2022-09-20T05:19:06;25.17;;;8.10;;
16957;SDS011;8595;52.542;11.974;2022-09-20T05:21:49;28.98;;;8.80;;
16957;SDS011;8595;52.542;11.974;2022-09-20T05:24:35;24.73;;;9.27;;
16957;SDS011;8595;52.542;11.974;2022-09-20T05:27:28;22.75;;;8.65;;
16957;SDS011;8595;52.542;11.974;2022-09-20T05:30:03;17.92;;;9.05;;
16957;SDS011;8595;52.542;11.974;2022-09-20T05:32:36;18.70;;;9.63;;
16957;SDS011;8595;52.542;11.974;2022-09-20T05:35:13;28.60;;;11.63;;
16957;SDS011;8595;52.542;11.974;2022-09-20T05:37:48;28.83;;;13.68;;
16957;SDS011;8595;52.542;11.974;2022-09-20T05:40:27;31.35;;;13.63;;
16957;SDS011;8595;52.542;11.974;2022-09-20T05:43:00;26.58;;;11.75;;
16957;SDS011;8595;52.542;11.974;2022-09-20T05:45:45;32.22;;;13.63;;
16957;SDS011;8595;52.542;11.974;2022-09-20T05:48:17;35.22;;;14.07;;
16957;SDS011;8595;52.542;11.974;2022-09-20T05:50:54;33.42;;;16.20;;
16957;SDS011;8595;52.542;11.974;2022-09-20T05:53:35;36.27;;;16.27;;
16957;SDS011;8595;52.542;11.974;2022-09-20T05:56:21;28.67;;;14.68;;
16957;SDS011;8595;52.542;11.974;2022-09-20T05:59:02;35.50;;;16.13;;
16957;SDS011;8595;52.542;11.974;2022-09-20T06:01:40;33.72;;;17.58;;
16957;SDS011;8595;52.542;11.974;2022-09-20T06:04:12;33.97;;;17.13;;
16957;SDS011;8595;52.542;11.974;2022-09-20T06:06:48;39.53;;;18.13;;
16957;SDS011;8595;52.542;11.974;2022-09-20T06:09:27;34.65;;;15.25;;
16957;SDS011;8595;52.542;11.974;2022-09-20T06:12:14;51.42;;;19.55;;
16957;SDS011;8595;52.542;11.974;2022-09-20T06:15:09;31.25;;;14.68;;
16957;SDS011;8595;52.542;11.974;2022-09-20T06:17:44;31.00;;;14.82;;
16957;SDS011;8595;52.542;11.974;2022-09-20T06:20:18;28.50;;;14.57;;
16957;SDS011;8595;52.542;11.974;2022-09-20T06:22:55;27.05;;;13.88;;
16957;SDS011;8595;52.542;11.974;2022-09-20T06:25:25;24.23;;;12.85;;
16957;SDS011;8595;52.542;11.974;2022-09-20T06:27:57;30.33;;;15.10;;
16957;SDS011;8595;52.542;11.974;2022-09-20T06:30:27;30.05;;;14.90;;
16957;SDS011;8595;52.542;11.974;2022-09-20T06:32:56;30.58;;;14.35;;
16957;SDS011;8595;52.542;11.974;2022-09-20T06:35:26;25.85;;;14.00;;
16957;SDS011;8595;52.542;11.974;2022-09-20T06:38:03;30.88;;;14.77;;
16957;SDS011;8595;52.542;11.974;2022-09-20T06:40:58;27.90;;;14.43;;
16957;SDS011;8595;52.542;11.974;2022-09-20T06:43:42;23.45;;;13.10;;
16957;SDS011;8595;52.542;11.974;2022-09-20T06:46:12;20.92;;;13.90;;
16957;SDS011;8595;52.542;11.974;2022-09-20T06:48:40;29.42;;;13.18;;
16957;SDS011;8595;52.542;11.974;2022-09-20T06:51:06;25.95;;;16.15;;
16957;SDS011;8595;52.542;11.974;2022-09-20T06:53:36;27.23;;;14.35;;
16957;SDS011;8595;52.542;11.974;2022-09-20T06:56:06;26.30;;;14.55;;
16957;SDS011;8595;52.542;11.974;2022-09-20T06:58:34;22.85;;;13.10;;
16957;SDS011;8595;52.542;11.974;2022-09-20T07:01:01;23.48;;;14.30;;
16957;SDS011;8595;52.542;11.974;2022-09-20T07:03:27;23.42;;;13.52;;
16957;SDS011;8595;52.542;11.974;2022-09-20T07:05:55;19.30;;;11.38;;
16957;SDS011;8595;52.542;11.974;2022-09-20T07:08:24;21.58;;;11.70;;
16957;SDS011;8595;52.542;11.974;2022-09-20T07:10:52;27.25;;;15.68;;
16957;SDS011;8595;52.542;11.974;2022-09-20T07:13:19;20.33;;;13.00;;
16957;SDS011;8595;52.542;11.974;2022-09-20T07:15:46;27.38;;;15.23;;
16957;SDS011;8595;52.542;11.974;2022-09-20T07:18:14;19.08;;;12.65;;
16957;SDS011;8595;52.542;11.974;2022-09-20T07:20:41;28.05;;;14.20;;
16957;SDS011;8595;52.542;11.974;2022-09-20T07:23:08;20.02;;;14.82;;
16957;SDS011;8595;52.542;11.974;2022-09-20T07:25:35;20.52;;;12.65;;
16957;SDS011;8595;52.542;11.974;2022-09-20T07:28:03;24.95;;;14.48;;
16957;SDS011;8595;52.542;11.974;2022-09-20T07:30:30;24.38;;;14.00;;
16957;SDS011;8595;52.542;11.974;2022-09-20T07:32:57;22.30;;;12.63;;
16957;SDS011;8595;52.542;11.974;2022-09-20T07:35:24;23.20;;;13.38;;
16957;SDS011;8595;52.542;11.974;2022-09-20T07:37:54;20.67;;;12.95;;
16957;SDS011;8595;52.542;11.974;2022-09-20T07:40:22;32.78;;;12.73;;
16957;SDS011;8595;52.542;11.974;2022-09-20T07:42:49;24.48;;;15.57;;
16957;SDS011;8595;52.542;11.974;2022-09-20T07:45:17;20.80;;;12.80;;
16957;SDS011;8595;52.542;11.974;2022-09-20T07:47:44;22.52;;;11.98;;
16957;SDS011;8595;52.542;11.974;2022-09-20T07:50:11;25.10;;;11.82;;
16957;SDS011;8595;52.542;11.974;2022-09-20T07:52:37;23.83;;;13.77;;
16957;SDS011;8595;52.542;11.974;2022-09-20T07:55:04;23.33;;;13.85;;
16957;SDS011;8595;52.542;11.974;2022-09-20T07:57:33;25.27;;;14.55;;
16957;SDS011;8595;52.542;11.974;2022-09-20T08:00:02;21.35;;;13.40;;
16957;SDS011;8595;52.542;11.974;2022-09-20T08:02:31;25.92;;;14.07;;
16957;SDS011;8595;52.542;11.974;2022-09-20T08:04:58;23.13;;;12.90;;
16957;SDS011;8595;52.542;11.974;2022-09-20T08:07:25;21.15;;;10.88;;
16957;SDS011;8595;52.542;11.974;2022-09-20T08:09:52;28.52;;;15.65;;
16957;SDS011;8595;52.542;11.974;2022-09-20T08:12:19;23.55;;;14.10;;
16957;SDS011;8595;52.542;11.974;2022-09-20T08:14:46;26.85;;;14.50;;
16957;SDS011;8595;52.542;11.974;2022-09-20T08:17:13;24.15;;;15.25;;
16957;SDS011;8595;52.542;11.974;2022-09-20T08:19:41;23.77;;;14.15;;
16957;SDS011;8595;52.542;11.974;2022-09-20T08:22:08;21.05;;;12.30;;
16957;SDS011;8595;52.542;11.974;2022-09-20T08:24:36;22.13;;;13.18;;
16957;SDS011;8595;52.542;11.974;2022-09-20T08:27:03;15.05;;;10.63;;
16957;SDS011;8595;52.542;11.974;2022-09-20T08:29:30;20.27;;;11.88;;
16957;SDS011;8595;52.542;11.974;2022-09-20T08:31:57;20.83;;;11.98;;
16957;SDS011;8595;52.542;11.974;2022-09-20T08:34:25;22.58;;;12.98;;
16957;SDS011;8595;52.542;11.974;2022-09-20T08:36:53;23.08;;;13.73;;
16957;SDS011;8595;52.542;11.974;2022-09-20T08:39:20;32.33;;;14.57;;
16957;SDS011;8595;52.542;11.974;2022-09-20T08:41:50;19.15;;;13.25;;
16957;SDS011;8595;52.542;11.974;2022-09-20T08:44:21;24.15;;;15.05;;
16957;SDS011;8595;52.542;11.974;2022-09-20T08:46:51;20.70;;;12.52;;
16957;SDS011;8595;52.542;11.974;2022-09-20T08:49:30;21.92;;;11.88;;
16957;SDS011;8595;52.542;11.974;2022-09-20T08:51:59;24.77;;;13.63;;
16957;SDS011;8595;52.542;11.974;2022-09-20T08:54:29;24.88;;;14.40;;
16957;SDS011;8595;52.542;11.974;2022-09-20T08:56:57;22.35;;;13.68;;
16957;SDS011;8595;52.542;11.974;2022-09-20T08:59:29;19.48;;;12.27;;
16957;SDS011;8595;52.542;11.974;2022-09-20T09:01:57;24.65;;;14.25;;
16957;SDS011;8595;52.542;11.974;2022-09-20T09:04:27;28.23;;;16.58;;
16957;SDS011;8595;52.542;11.974;2022-09-20T09:07:01;22.65;;;13.90;;
16957;SDS011;8595;52.542;11.974;2022-09-20T09:09:28;24.65;;;13.82;;
16957;SDS011;8595;52.542;11.974;2022-09-20T09:11:59;17.25;;;12.10;;
16957;SDS011;8595;52.542;11.974;2022-09-20T09:14:27;20.38;;;12.68;;
16957;SDS011;8595;52.542;11.974;2022-09-20T09:17:14;21.50;;;13.02;;
16957;SDS011;8595;52.542;11.974;2022-09-20T09:19:43;18.88;;;13.07;;
16957;SDS011;8595;52.542;11.974;2022-09-20T09:22:18;19.08;;;12.50;;
16957;SDS011;8595;52.542;11.974;2022-09-20T09:27:31;20.20;;;12.57;;
16957;SDS011;8595;52.542;11.974;2022-09-20T09:29:59;18.30;;;12.13;;
16957;SDS011;8595;52.542;11.974;2022-09-20T09:32:27;19.33;;;11.68;;
16957;SDS011;8595;52.542;11.974;2022-09-20T09:34:57;18.80;;;11.23;;
16957;SDS011;8595;52.542;11.974;2022-09-20T09:37:53;16.88;;;11.23;;
16957;SDS011;8595;52.542;11.974;2022-09-20T09:40:21;16.23;;;10.55;;
16957;SDS011;8595;52.542;11.974;2022-09-20T09:42:48;16.90;;;10.90;;
16957;SDS011;8595;52.542;11.974;2022-09-20T09:45:23;14.30;;;9.88;;
16957;SDS011;8595;52.542;11.974;2022-09-20T09:47:52;15.73;;;11.40;;
16957;SDS011;8595;52.542;11.974;2022-09-20T09:50:22;17.08;;;11.55;;
16957;SDS011;8595;52.542;11.974;2022-09-20T09:52:57;14.68;;;10.43;;
16957;SDS011;8595;52.542;11.974;2022-09-20T09:55:35;14.15;;;9.70;;
16957;SDS011;8595;52.542;11.974;2022-09-20T09:58:18;14.05;;;8.82;;
16957;SDS011;8595;52.542;11.974;2022-09-20T10:00:56;13.23;;;9.23;;
16957;SDS011;8595;52.542;11.974;2022-09-20T10:03:34;12.65;;;7.88;;
16957;SDS011;8595;52.542;11.974;2022-09-20T10:06:13;11.93;;;7.70;;
16957;SDS011;8595;52.542;11.974;2022-09-20T10:08:56;11.88;;;7.15;;
16957;SDS011;8595;52.542;11.974;2022-09-20T10:11:35;10.50;;;7.78;;
16957;SDS011;8595;52.542;11.974;2022-09-20T10:14:23;12.02;;;7.90;;
16957;SDS011;8595;52.542;11.974;2022-09-20T10:17:01;14.93;;;8.88;;
16957;SDS011;8595;52.542;11.974;2022-09-20T10:19:46;11.68;;;7.60;;
16957;SDS011;8595;52.542;11.974;2022-09-20T10:22:23;11.95;;;8.00;;
16957;SDS011;8595;52.542;11.974;2022-09-20T10:25:05;12.68;;;7.40;;
16957;SDS011;8595;52.542;11.974;2022-09-20T10:27:45;9.77;;;6.47;;
16957;SDS011;8595;52.542;11.974;2022-09-20T10:30:27;11.60;;;7.95;;
16957;SDS011;8595;52.542;11.974;2022-09-20T10:33:02;10.55;;;7.30;;
16957;SDS011;8595;52.542;11.974;2022-09-20T10:35:43;9.93;;;7.20;;
16957;SDS011;8595;52.542;11.974;2022-09-20T10:38:20;8.77;;;6.15;;
16957;SDS011;8595;52.542;11.974;2022-09-20T10:40:57;9.45;;;6.38;;
16957;SDS011;8595;52.542;11.974;2022-09-20T10:43:58;7.68;;;6.07;;
16957;SDS011;8595;52.542;11.974;2022-09-20T10:46:35;10.70;;;6.78;;
16957;SDS011;8595;52.542;11.974;2022-09-20T10:49:13;12.20;;;6.47;;
16957;SDS011;8595;52.542;11.974;2022-09-20T10:51:51;7.68;;;5.18;;
16957;SDS011;8595;52.542;11.974;2022-09-20T10:54:27;6.95;;;5.43;;
16957;SDS011;8595;52.542;11.974;2022-09-20T10:57:08;6.82;;;4.80;;
16957;SDS011;8595;52.542;11.974;2022-09-20T10:59:45;7.40;;;4.70;;
16957;SDS011;8595;52.542;11.974;2022-09-20T11:02:23;10.48;;;5.10;;
16957;SDS011;8595;52.542;11.974;2022-09-20T11:05:01;5.25;;;3.50;;
16957;SDS011;8595;52.542;11.974;2022-09-20T11:08:02;6.25;;;3.92;;
16957;SDS011;8595;52.542;11.974;2022-09-20T11:10:36;5.90;;;3.83;;
16957;SDS011;8595;52.542;11.974;2022-09-20T11:13:14;5.75;;;3.70;;
16957;SDS011;8595;52.542;11.974;2022-09-20T11:15:48;6.10;;;3.67;;
16957;SDS011;8595;52.542;11.974;2022-09-20T11:18:24;6.65;;;3.60;;
16957;SDS011;8595;52.542;11.974;2022-09-20T11:20:58;6.47;;;3.35;;
16957;SDS011;8595;52.542;11.974;2022-09-20T11:23:32;6.78;;;3.20;;
16957;SDS011;8595;52.542;11.974;2022-09-20T11:26:09;5.68;;;3.72;;
16957;SDS011;8595;52.542;11.974;2022-09-20T11:28:43;5.25;;;2.85;;
16957;SDS011;8595;52.542;11.974;2022-09-20T11:31:16;4.78;;;2.47;;
16957;SDS011;8595;52.542;11.974;2022-09-20T11:33:50;8.20;;;3.35;;
16957;SDS011;8595;52.542;11.974;2022-09-20T11:36:22;3.17;;;2.17;;
16957;SDS011;8595;52.542;11.974;2022-09-20T11:38:53;3.83;;;2.28;;
16957;SDS011;8595;52.542;11.974;2022-09-20T11:41:25;5.80;;;2.70;;
16957;SDS011;8595;52.542;11.974;2022-09-20T11:43:54;5.78;;;2.03;;
16957;SDS011;8595;52.542;11.974;2022-09-20T11:46:26;3.33;;;1.80;;
16957;SDS011;8595;52.542;11.974;2022-09-20T11:48:57;3.40;;;2.17;;
16957;SDS011;8595;52.542;11.974;2022-09-20T11:51:30;5.25;;;1.75;;
16957;SDS011;8595;52.542;11.974;2022-09-20T11:54:21;1.58;;;1.40;;
16957;SDS011;8595;52.542;11.974;2022-09-20T11:57:06;3.63;;;1.50;;
16957;SDS011;8595;52.542;11.974;2022-09-20T11:59:41;2.20;;;1.60;;
16957;SDS011;8595;52.542;11.974;2022-09-20T12:02:15;2.65;;;1.33;;
16957;SDS011;8595;52.542;11.974;2022-09-20T12:04:46;2.90;;;0.80;;
16957;SDS011;8595;52.542;11.974;2022-09-20T12:07:18;2.78;;;1.60;;
16957;SDS011;8595;52.542;11.974;2022-09-20T12:09:51;1.25;;;0.90;;
16957;SDS011;8595;52.542;11.974;2022-09-20T12:12:30;2.55;;;1.48;;
16957;SDS011;8595;52.542;11.974;2022-09-20T12:15:03;2.65;;;1.23;;
16957;SDS011;8595;52.542;11.974;2022-09-20T12:21:05;2.45;;;0.93;;
16957;SDS011;8595;52.542;11.974;2022-09-20T12:23:43;1.67;;;0.73;;
16957;SDS011;8595;52.542;11.974;2022-09-20T12:26:11;1.30;;;0.80;;
16957;SDS011;8595;52.542;11.974;2022-09-20T12:29:01;1.17;;;0.70;;
16957;SDS011;8595;52.542;11.974;2022-09-20T12:31:52;2.88;;;0.80;;
16957;SDS011;8595;52.542;11.974;2022-09-20T12:34:32;1.50;;;0.80;;
16957;SDS011;8595;52.542;11.974;2022-09-20T12:37:16;1.70;;;0.90;;
16957;SDS011;8595;52.542;11.974;2022-09-20T12:39:49;0.73;;;0.70;;
16957;SDS011;8595;52.542;11.974;2022-09-20T12:42:24;1.90;;;0.85;;
16957;SDS011;8595;52.542;11.974;2022-09-20T12:44:57;1.50;;;1.10;;
16957;SDS011;8595;52.542;11.974;2022-09-20T12:47:29;0.80;;;0.80;;
16957;SDS011;8595;52.542;11.974;2022-09-20T12:49:58;0.70;;;0.70;;
16957;SDS011;8595;52.542;11.974;2022-09-20T12:52:48;4.22;;;0.80;;
16957;SDS011;8595;52.542;11.974;2022-09-20T12:55:32;3.45;;;1.10;;
16957;SDS011;8595;52.542;11.974;2022-09-20T12:58:18;1.00;;;0.90;;
16957;SDS011;8595;52.542;11.974;2022-09-20T13:00:49;0.98;;;0.98;;
16957;SDS011;8595;52.542;11.974;2022-09-20T13:03:38;2.97;;;1.20;;
16957;SDS011;8595;52.542;11.974;2022-09-20T13:06:22;1.98;;;1.00;;
16957;SDS011;8595;52.542;11.974;2022-09-20T13:08:51;2.05;;;0.95;;
16957;SDS011;8595;52.542;11.974;2022-09-20T13:11:22;2.55;;;1.00;;
16957;SDS011;8595;52.542;11.974;2022-09-20T13:13:54;1.70;;;1.13;;
16957;SDS011;8595;52.542;11.974;2022-09-20T13:16:23;1.15;;;1.05;;
16957;SDS011;8595;52.542;11.974;2022-09-20T13:18:56;2.20;;;1.08;;
16957;SDS011;8595;52.542;11.974;2022-09-20T13:21:29;2.78;;;1.02;;
16957;SDS011;8595;52.542;11.974;2022-09-20T13:23:57;1.73;;;1.00;;
16957;SDS011;8595;52.542;11.974;2022-09-20T13:26:27;0.77;;;0.77;;
16957;SDS011;8595;52.542;11.974;2022-09-20T13:29:05;2.08;;;1.13;;
16957;SDS011;8595;52.542;11.974;2022-09-20T13:31:34;4.38;;;1.27;;
16957;SDS011;8595;52.542;11.974;2022-09-20T13:34:18;0.80;;;0.80;;
16957;SDS011;8595;52.542;11.974;2022-09-20T13:36:46;4.03;;;1.65;;
16957;SDS011;8595;52.542;11.974;2022-09-20T13:39:23;2.40;;;1.70;;
16957;SDS011;8595;52.542;11.974;2022-09-20T13:41:53;1.55;;;1.45;;
16957;SDS011;8595;52.542;11.974;2022-09-20T13:44:26;1.92;;;1.65;;
16957;SDS011;8595;52.542;11.974;2022-09-20T13:46:54;2.42;;;1.20;;
16957;SDS011;8595;52.542;11.974;2022-09-20T13:49:22;1.42;;;1.27;;
16957;SDS011;8595;52.542;11.974;2022-09-20T13:51:49;1.35;;;1.02;;
16957;SDS011;8595;52.542;11.974;2022-09-20T13:54:23;1.52;;;1.40;;
16957;SDS011;8595;52.542;11.974;2022-09-20T13:56:52;1.30;;;1.10;;
16957;SDS011;8595;52.542;11.974;2022-09-20T13:59:20;1.20;;;0.85;;
16957;SDS011;8595;52.542;11.974;2022-09-20T14:01:48;2.53;;;1.70;;
16957;SDS011;8595;52.542;11.974;2022-09-20T14:04:17;4.30;;;1.52;;
16957;SDS011;8595;52.542;11.974;2022-09-20T14:06:48;1.20;;;1.10;;
16957;SDS011;8595;52.542;11.974;2022-09-20T14:09:19;1.55;;;1.20;;
16957;SDS011;8595;52.542;11.974;2022-09-20T14:11:50;1.88;;;1.50;;
16957;SDS011;8595;52.542;11.974;2022-09-20T14:14:18;2.42;;;1.30;;
16957;SDS011;8595;52.542;11.974;2022-09-20T14:16:46;1.45;;;1.20;;
16957;SDS011;8595;52.542;11.974;2022-09-20T14:19:14;2.15;;;1.38;;
16957;SDS011;8595;52.542;11.974;2022-09-20T14:21:44;1.63;;;1.20;;
16957;SDS011;8595;52.542;11.974;2022-09-20T14:24:25;0.95;;;0.88;;
16957;SDS011;8595;52.542;11.974;2022-09-20T14:27:00;1.60;;;0.90;;
16957;SDS011;8595;52.542;11.974;2022-09-20T14:29:38;1.67;;;1.10;;
16957;SDS011;8595;52.542;11.974;2022-09-20T14:32:09;0.90;;;0.50;;
16957;SDS011;8595;52.542;11.974;2022-09-20T14:34:43;3.05;;;0.80;;
16957;SDS011;8595;52.542;11.974;2022-09-20T14:37:12;2.17;;;1.10;;
16957;SDS011;8595;52.542;11.974;2022-09-20T14:39:46;1.45;;;0.88;;
16957;SDS011;8595;52.542;11.974;2022-09-20T14:42:17;0.93;;;0.77;;
16957;SDS011;8595;52.542;11.974;2022-09-20T14:44:48;1.30;;;0.70;;
16957;SDS011;8595;52.542;11.974;2022-09-20T14:47:25;1.65;;;0.98;;
16957;SDS011;8595;52.542;11.974;2022-09-20T14:49:53;1.40;;;0.65;;
16957;SDS011;8595;52.542;11.974;2022-09-20T14:52:34;0.98;;;0.70;;
16957;SDS011;8595;52.542;11.974;2022-09-20T14:55:15;3.35;;;1.65;;
16957;SDS011;8595;52.542;11.974;2022-09-20T14:57:46;1.65;;;1.10;;
16957;SDS011;8595;52.542;11.974;2022-09-20T15:00:13;1.50;;;0.70;;
16957;SDS011;8595;52.542;11.974;2022-09-20T15:02:41;1.58;;;0.70;;
16957;SDS011;8595;52.542;11.974;2022-09-20T15:05:15;1.02;;;0.50;;
16957;SDS011;8595;52.542;11.974;2022-09-20T15:07:43;0.98;;;0.60;;
16957;SDS011;8595;52.542;11.974;2022-09-20T15:10:12;1.25;;;0.57;;
16957;SDS011;8595;52.542;11.974;2022-09-20T15:12:39;0.70;;;0.50;;
16957;SDS011;8595;52.542;11.974;2022-09-20T15:15:07;1.20;;;0.70;;
16957;SDS011;8595;52.542;11.974;2022-09-20T15:17:39;1.08;;;0.73;;
16957;SDS011;8595;52.542;11.974;2022-09-20T15:20:11;1.65;;;0.60;;
16957;SDS011;8595;52.542;11.974;2022-09-20T15:22:39;1.65;;;0.60;;
16957;SDS011;8595;52.542;11.974;2022-09-20T15:25:08;0.50;;;0.50;;
16957;SDS011;8595;52.542;11.974;2022-09-20T15:27:41;0.70;;;0.50;;
16957;SDS011;8595;52.542;11.974;2022-09-20T15:30:11;2.88;;;0.70;;
16957;SDS011;8595;52.542;11.974;2022-09-20T15:32:40;2.13;;;0.93;;
16957;SDS011;8595;52.542;11.974;2022-09-20T15:35:07;1.58;;;0.70;;
16957;SDS011;8595;52.542;11.974;2022-09-20T15:37:34;1.23;;;0.75;;
16957;SDS011;8595;52.542;11.974;2022-09-20T15:40:01;2.15;;;0.85;;
16957;SDS011;8595;52.542;11.974;2022-09-20T15:42:30;2.25;;;0.60;;
16957;SDS011;8595;52.542;11.974;2022-09-20T15:44:56;1.83;;;1.10;;
16957;SDS011;8595;52.542;11.974;2022-09-20T15:47:23;1.48;;;0.63;;
16957;SDS011;8595;52.542;11.974;2022-09-20T15:49:52;2.90;;;0.75;;
16957;SDS011;8595;52.542;11.974;2022-09-20T15:52:19;1.75;;;1.02;;